Time;durP1;ratioP1;P1;durP2;ratioP2;P2;SDS_P1;SDS_P2;PMS_P1;PMS_P2;Temp;Humidity;BMP_temperature;BMP_pressure;BME280_temperature;BME280_humidity;BME280_pressure;Samples;Min_cycle;Max_cycle;Signal;HPM_P1;HPM_P2
2022/12/17 13:06:40;;;;;;;54.10;27.73;;;0.90;99.90;;;;;;5087264;28;20544;-83
2022/12/17 13:09:19;;;;;;;59.97;28.55;;;0.90;99.90;;;;;;5107995;28;20086;-83
2022/12/17 13:11:48;;;;;;;61.88;30.10;;;0.90;99.90;;;;;;5108902;28;20075;-84
2022/12/17 13:14:30;;;;;;;54.25;27.83;;;0.90;99.90;;;;;;5107823;28;20046;-84
2022/12/17 13:17:21;;;;;;;46.40;22.27;;;1.00;99.90;;;;;;5108932;28;20039;-84
2022/12/17 13:19:56;;;;;;;53.45;28.45;;;0.90;99.90;;;;;;5090906;28;20044;-84
2022/12/17 13:22:22;;;;;;;63.08;29.98;;;1.20;99.90;;;;;;5108311;28;20050;-83
2022/12/17 13:24:53;;;;;;;68.80;30.13;;;1.00;99.90;;;;;;5107791;28;20051;-83
2022/12/17 13:27:34;;;;;;;56.00;28.42;;;1.00;99.90;;;;;;5107619;28;20062;-85
2022/12/17 13:30:20;;;;;;;58.45;29.75;;;1.00;99.90;;;;;;5108714;28;20164;-80
2022/12/17 13:33:24;;;;;;;53.85;28.48;;;1.00;99.90;;;;;;5087710;28;20239;-81
2022/12/17 13:36:11;;;;;;;56.53;27.77;;;1.00;99.90;;;;;;5104514;28;20189;-82
2022/12/17 13:38:43;;;;;;;57.03;28.17;;;0.90;99.90;;;;;;5104647;28;20044;-80
2022/12/17 13:41:20;;;;;;;54.80;30.08;;;0.90;99.90;;;;;;5103991;28;20048;-82
2022/12/17 13:43:50;;;;;;;57.42;28.88;;;0.80;99.90;;;;;;5086942;28;20044;-84
2022/12/17 13:46:27;;;;;;;59.33;29.45;;;0.80;99.90;;;;;;5104306;28;20055;-81
2022/12/17 13:49:02;;;;;;;56.72;29.05;;;0.80;99.90;;;;;;5103609;28;20398;-82
2022/12/17 13:51:31;;;;;;;58.13;28.85;;;0.70;99.90;;;;;;5104032;28;20082;-83
2022/12/17 13:53:59;;;;;;;59.92;31.23;;;0.80;99.90;;;;;;5086221;28;20044;-81
2022/12/17 13:56:29;;;;;;;55.38;29.92;;;1.90;99.90;;;;;;5103768;28;20083;-80
2022/12/17 13:58:56;;;;;;;57.30;28.95;;;0.70;99.90;;;;;;5087222;28;20043;-81
2022/12/17 14:01:24;;;;;;;54.17;27.52;;;0.70;99.90;;;;;;5103569;28;20043;-83
2022/12/17 14:03:56;;;;;;;57.25;30.38;;;0.70;99.90;;;;;;5103984;28;20044;-84
2022/12/17 14:06:25;;;;;;;61.05;30.17;;;0.70;99.90;;;;;;5103244;28;20437;-83
2022/12/17 14:08:53;;;;;;;64.20;31.13;;;0.70;99.90;;;;;;5103829;28;20505;-83
2022/12/17 14:14:18;;;;;;;59.00;29.35;;;0.70;99.90;;;;;;5102974;28;20514;-85
2022/12/17 14:16:44;;;;;;;55.58;29.73;;;0.70;99.90;;;;;;5086973;28;20059;-82
2022/12/17 14:19:10;;;;;;;58.05;29.08;;;0.60;99.90;;;;;;5085667;28;20047;-84
2022/12/17 14:21:36;;;;;;;60.58;29.85;;;0.60;99.90;;;;;;5103875;28;20416;-84
2022/12/17 14:24:03;;;;;;;58.22;30.38;;;0.60;99.90;;;;;;5086850;28;20071;-84
2022/12/17 14:26:29;;;;;;;61.35;30.70;;;0.60;99.90;;;;;;5104068;28;20044;-82
2022/12/17 14:28:55;;;;;;;58.38;29.15;;;0.50;99.90;;;;;;5103541;28;20039;-82
2022/12/17 14:31:26;;;;;;;55.17;27.92;;;0.50;99.90;;;;;;5085792;28;20293;-83
2022/12/17 14:34:05;;;;;;;61.22;28.50;;;0.40;99.90;;;;;;5103581;28;20043;-83
2022/12/17 14:36:34;;;;;;;61.10;29.80;;;0.40;99.90;;;;;;5102619;28;20044;-83
2022/12/17 14:39:09;;;;;;;60.97;29.50;;;0.40;99.90;;;;;;5103767;28;20489;-83
2022/12/17 15:10:19;;;;;;;62.95;31.00;;;-0.20;99.90;;;;;;5108287;28;20633;-85
2022/12/17 15:12:46;;;;;;;64.05;29.77;;;-0.20;99.90;;;;;;5090049;28;20044;-84
2022/12/17 15:15:15;;;;;;;68.70;30.05;;;-0.30;99.90;;;;;;5106309;28;20051;-85
2022/12/17 15:17:41;;;;;;;60.28;30.48;;;-0.30;99.90;;;;;;5109082;27;20047;-83
2022/12/17 15:20:15;;;;;;;67.13;31.40;;;-0.30;99.90;;;;;;5109810;27;20054;-84
2022/12/17 15:22:41;;;;;;;65.88;31.33;;;-0.40;99.90;;;;;;5093289;27;20035;-83
2022/12/17 15:25:14;;;;;;;65.55;29.70;;;-0.40;99.90;;;;;;5092669;27;20810;-83
2022/12/17 15:27:40;;;;;;;67.75;32.15;;;-0.50;99.90;;;;;;5093197;27;20043;-87
2022/12/17 15:30:06;;;;;;;60.10;28.63;;;-0.50;99.90;;;;;;5093906;27;20513;-83
2022/12/17 15:32:31;;;;;;;64.57;30.88;;;-0.50;99.90;;;;;;5109695;27;20051;-83
2022/12/17 15:34:57;;;;;;;64.03;29.65;;;0.40;99.90;;;;;;5111207;27;20076;-86
2022/12/17 15:37:24;;;;;;;64.13;30.02;;;-0.60;99.90;;;;;;5093177;27;20513;-83
2022/12/17 15:39:50;;;;;;;69.55;30.45;;;-0.60;99.90;;;;;;5093722;27;20174;-85
2022/12/17 15:44:59;;;;;;;64.40;31.38;;;-0.70;99.90;;;;;;5128896;27;20050;-85
2022/12/17 15:47:25;;;;;;;71.25;31.83;;;-0.70;99.90;;;;;;5096308;27;20039;-85
2022/12/17 15:49:51;;;;;;;72.10;32.05;;;-0.80;99.90;;;;;;5094996;27;20043;-87
2022/12/17 15:52:16;;;;;;;64.65;29.92;;;-0.80;99.90;;;;;;5111075;27;20047;-86
2022/12/17 15:54:42;;;;;;;64.50;30.55;;;-0.80;99.90;;;;;;5094181;27;20137;-85
2022/12/17 15:57:09;;;;;;;73.80;30.08;;;-0.90;99.90;;;;;;5077139;27;20135;-84
2022/12/17 15:59:35;;;;;;;64.78;30.02;;;-0.90;99.90;;;;;;5111506;27;20039;-84
2022/12/17 16:02:00;;;;;;;70.20;28.85;;;-0.90;99.90;;;;;;5109842;27;20047;-86
2022/12/17 16:04:26;;;;;;;72.13;31.25;;;-0.90;99.90;;;;;;5093556;27;20122;-87
2022/12/17 16:06:52;;;;;;;65.35;29.63;;;-0.90;99.90;;;;;;5109365;27;20414;-85
2022/12/17 16:09:18;;;;;;;70.25;30.40;;;-1.00;99.90;;;;;;5110645;27;20043;-85
2022/12/17 16:11:43;;;;;;;71.60;30.58;;;-1.00;99.90;;;;;;5092452;27;20502;-84
2022/12/17 16:14:09;;;;;;;70.68;33.35;;;-1.00;99.90;;;;;;5110137;27;20092;-85
2022/12/17 16:16:34;;;;;;;70.18;29.15;;;-1.00;99.90;;;;;;5092428;27;20043;-84
2022/12/17 16:19:00;;;;;;;77.70;32.97;;;-1.10;99.90;;;;;;5109079;27;20138;-86
2022/12/17 16:21:27;;;;;;;76.05;31.90;;;-1.10;99.90;;;;;;5092668;27;20035;-83
2022/12/17 16:23:52;;;;;;;65.03;30.17;;;-1.10;99.90;;;;;;5108474;27;20383;-83
2022/12/17 16:26:18;;;;;;;69.53;31.13;;;-1.10;99.90;;;;;;5092989;27;20051;-84
2022/12/17 16:28:44;;;;;;;77.85;33.53;;;-1.10;99.90;;;;;;5108486;27;20043;-84
2022/12/17 16:31:13;;;;;;;77.13;35.42;;;-1.20;99.90;;;;;;5076787;27;20543;-84
2022/12/17 16:33:41;;;;;;;73.80;31.92;;;-1.20;99.90;;;;;;5109002;27;20472;-82
2022/12/17 16:36:09;;;;;;;72.53;29.75;;;-1.20;99.90;;;;;;5109546;27;20410;-83
2022/12/17 16:38:44;;;;;;;76.55;31.55;;;-1.20;99.90;;;;;;5092042;27;20039;-84
2022/12/17 16:41:11;;;;;;;79.18;30.85;;;-1.20;99.90;;;;;;5107925;27;20095;-84
2022/12/17 16:43:37;;;;;;;70.43;30.33;;;-1.30;99.90;;;;;;5109537;27;20139;-85
2022/12/17 16:46:02;;;;;;;65.50;28.98;;;-1.30;99.90;;;;;;5090929;27;20079;-85
2022/12/17 16:48:28;;;;;;;82.28;31.88;;;-1.30;99.90;;;;;;5108935;27;20051;-87
2022/12/17 16:50:54;;;;;;;75.32;34.13;;;-1.40;99.90;;;;;;5108436;27;20080;-87
2022/12/17 16:53:20;;;;;;;71.97;29.75;;;-1.30;99.90;;;;;;5091342;27;20375;-85
2022/12/17 16:55:47;;;;;;;75.22;29.10;;;-1.40;99.90;;;;;;5075589;27;20108;-84
2022/12/17 16:58:14;;;;;;;83.85;30.35;;;-1.40;99.90;;;;;;5107443;27;20047;-85
2022/12/17 17:00:40;;;;;;;73.68;28.50;;;-1.40;99.90;;;;;;5092273;27;20050;-86
2022/12/17 17:03:07;;;;;;;67.10;28.00;;;-1.50;99.90;;;;;;5089928;27;20121;-85
2022/12/17 17:05:38;;;;;;;67.72;27.95;;;-1.50;99.90;;;;;;5109448;27;20356;-85
2022/12/17 17:08:04;;;;;;;74.93;27.95;;;-0.20;99.90;;;;;;5074176;27;20074;-85
2022/12/17 17:10:30;;;;;;;76.30;27.02;;;-1.60;99.90;;;;;;5091062;27;20081;-83
2022/12/17 17:12:56;;;;;;;74.65;29.92;;;-1.60;99.90;;;;;;5074576;27;20043;-85
2022/12/17 17:15:22;;;;;;;72.57;27.80;;;-1.60;99.90;;;;;;5090447;27;20394;-85
2022/12/17 17:17:48;;;;;;;80.53;30.20;;;-1.60;99.90;;;;;;5074363;27;20051;-85
2022/12/17 17:20:15;;;;;;;74.03;27.58;;;-1.60;99.90;;;;;;5106467;27;20565;-84
2022/12/17 17:22:41;;;;;;;78.57;30.05;;;-1.70;99.90;;;;;;5092220;27;20122;-85
2022/12/17 17:25:07;;;;;;;79.10;28.48;;;-1.70;99.90;;;;;;5073700;27;20126;-84
2022/12/17 17:27:32;;;;;;;71.32;28.48;;;-1.70;99.90;;;;;;5090840;27;20562;-84
2022/12/17 17:29:58;;;;;;;73.38;27.83;;;-1.70;99.90;;;;;;5107827;27;20051;-85
2022/12/17 17:32:24;;;;;;;78.45;29.15;;;-1.80;99.90;;;;;;5107317;27;20513;-85
2022/12/17 17:34:50;;;;;;;74.15;28.45;;;-1.70;99.90;;;;;;5091344;27;20035;-85
2022/12/17 17:37:16;;;;;;;84.10;30.08;;;-1.80;99.90;;;;;;5089339;27;20126;-85
2022/12/17 17:39:42;;;;;;;68.50;27.33;;;-1.80;99.90;;;;;;5091799;27;20053;-85
2022/12/17 17:42:08;;;;;;;83.90;30.08;;;-1.80;99.90;;;;;;5107935;27;20106;-85
2022/12/17 17:44:34;;;;;;;74.68;26.85;;;-1.80;99.90;;;;;;5109527;27;20039;-85
2022/12/17 17:47:00;;;;;;;76.63;28.88;;;-1.80;99.90;;;;;;5107553;27;20039;-85
2022/12/17 17:49:26;;;;;;;72.80;27.75;;;-1.80;99.90;;;;;;5106894;27;20115;-85
2022/12/17 17:51:52;;;;;;;78.88;27.95;;;-1.80;99.90;;;;;;5108525;28;20081;-85
2022/12/17 17:54:17;;;;;;;66.78;26.77;;;-1.80;99.90;;;;;;5089852;27;20079;-86
2022/12/17 17:56:43;;;;;;;71.03;26.67;;;-1.80;99.90;;;;;;5074526;27;20044;-85
2022/12/17 17:59:12;;;;;;;73.05;29.00;;;-1.80;99.90;;;;;;5124756;27;20039;-85
2022/12/17 18:01:41;;;;;;;70.07;27.27;;;-1.90;99.90;;;;;;5127117;27;20053;-85
2022/12/17 18:04:10;;;;;;;72.80;26.10;;;-1.90;99.90;;;;;;5106941;28;20546;-86
2022/12/17 18:06:37;;;;;;;72.53;28.02;;;-1.90;99.90;;;;;;5090137;28;20035;-85
2022/12/17 18:09:03;;;;;;;73.93;28.65;;;-1.90;99.90;;;;;;5107951;28;20050;-85
2022/12/17 18:11:30;;;;;;;73.63;26.65;;;-1.90;99.90;;;;;;5088889;28;20462;-84
2022/12/17 18:13:57;;;;;;;79.00;27.63;;;-2.00;99.90;;;;;;5108349;28;20510;-85
2022/12/17 18:16:34;;;;;;;74.82;28.25;;;-2.00;99.90;;;;;;5105997;28;20047;-86
2022/12/17 18:19:03;;;;;;;70.47;26.83;;;-2.00;99.90;;;;;;5104478;28;20056;-84
2022/12/17 18:21:29;;;;;;;67.63;27.58;;;-2.00;99.90;;;;;;5103590;28;20044;-85
2022/12/17 18:24:11;;;;;;;67.75;25.20;;;-2.00;99.90;;;;;;5086535;28;20039;-85
2022/12/17 18:26:41;;;;;;;66.93;25.80;;;-2.10;99.90;;;;;;5087524;28;20055;-85
2022/12/17 18:29:25;;;;;;;70.90;27.33;;;-2.00;99.90;;;;;;5085432;28;20054;-85
2022/12/17 18:31:51;;;;;;;67.18;26.58;;;-2.10;99.90;;;;;;5105027;28;20092;-85
2022/12/17 18:34:20;;;;;;;79.25;28.77;;;-2.10;99.90;;;;;;5104049;28;20339;-85
2022/12/17 18:36:48;;;;;;;77.47;26.67;;;-2.10;99.90;;;;;;5103311;28;20039;-86
2022/12/17 18:39:16;;;;;;;86.95;27.52;;;-2.10;99.90;;;;;;5107831;28;20526;-86
2022/12/17 18:44:29;;;;;;;75.63;28.00;;;-2.10;99.90;;;;;;5108811;28;20054;-85
2022/12/17 18:46:55;;;;;;;71.20;25.92;;;-0.80;99.90;;;;;;5108609;28;20040;-86
2022/12/17 18:49:22;;;;;;;77.00;29.13;;;-1.00;99.90;;;;;;5112119;28;20067;-86
2022/12/17 18:51:49;;;;;;;72.55;26.83;;;-2.20;99.90;;;;;;5112035;28;20047;-85
2022/12/17 18:54:26;;;;;;;67.13;25.50;;;-2.20;99.90;;;;;;5110243;28;20051;-85
2022/12/17 18:56:53;;;;;;;74.95;26.10;;;-2.20;99.90;;;;;;5113219;28;20286;-86
2022/12/17 18:59:22;;;;;;;71.25;25.92;;;-2.20;99.90;;;;;;5108886;28;20161;-86
2022/12/17 19:01:48;;;;;;;76.82;27.00;;;-2.20;99.90;;;;;;5112540;28;20044;-86
2022/12/17 19:04:16;;;;;;;72.88;26.65;;;-2.20;99.90;;;;;;5093511;28;20432;-85
2022/12/17 19:06:43;;;;;;;79.30;28.88;;;-2.20;99.90;;;;;;5110674;28;20028;-85
2022/12/17 19:09:27;;;;;;;77.82;27.48;;;-2.20;99.90;;;;;;5111370;28;20063;-85
2022/12/17 19:11:54;;;;;;;75.50;28.33;;;-2.20;99.90;;;;;;5092827;28;20039;-86
2022/12/17 19:14:23;;;;;;;68.70;26.70;;;-2.20;99.90;;;;;;5111781;28;20104;-86
2022/12/17 19:16:51;;;;;;;72.43;27.63;;;-2.20;99.90;;;;;;5109099;28;20036;-86
2022/12/17 19:19:17;;;;;;;78.72;29.13;;;-2.30;99.90;;;;;;5095521;28;20434;-85
2022/12/17 19:21:43;;;;;;;73.75;27.08;;;-2.30;99.90;;;;;;5110215;28;20051;-86
2022/12/17 19:24:12;;;;;;;69.15;26.50;;;-2.30;99.90;;;;;;5110011;28;20098;-86
2022/12/17 19:26:39;;;;;;;75.10;28.65;;;-2.30;99.90;;;;;;5112438;28;20044;-86
2022/12/17 19:29:07;;;;;;;80.97;30.05;;;-2.30;99.90;;;;;;5109224;28;20036;-86
2022/12/17 19:31:36;;;;;;;76.13;28.65;;;-0.90;99.90;;;;;;5111903;28;20040;-85
2022/12/17 19:34:04;;;;;;;77.25;31.10;;;-2.30;99.90;;;;;;5112010;28;20453;-86
2022/12/17 19:36:33;;;;;;;75.72;28.90;;;-2.30;99.90;;;;;;5114040;28;20502;-86
2022/12/17 19:39:02;;;;;;;78.63;29.48;;;-2.20;99.90;;;;;;5111275;28;20055;-86
2022/12/17 19:41:30;;;;;;;81.53;28.15;;;-2.20;99.90;;;;;;5110160;28;20070;-86
2022/12/17 19:44:07;;;;;;;78.60;30.45;;;-2.20;99.90;;;;;;5111872;28;20048;-86
2022/12/17 19:46:35;;;;;;;76.00;26.67;;;-2.20;99.90;;;;;;5110510;28;20039;-85
2022/12/17 19:49:01;;;;;;;85.90;28.20;;;-2.20;99.90;;;;;;5111600;28;20067;-85
2022/12/17 19:51:29;;;;;;;73.07;28.63;;;-2.30;99.90;;;;;;5109854;28;20048;-85
2022/12/17 19:53:55;;;;;;;78.32;29.15;;;-2.20;99.90;;;;;;5111138;28;20043;-87
2022/12/17 19:56:30;;;;;;;79.85;30.17;;;-1.40;99.90;;;;;;5110860;28;20047;-86
2022/12/17 19:59:00;;;;;;;83.45;27.85;;;-2.20;99.90;;;;;;5109822;28;20039;-86
2022/12/17 20:02:02;;;;;;;84.82;29.92;;;-2.20;99.90;;;;;;5113542;28;20117;-86
2022/12/17 20:04:31;;;;;;;71.50;29.30;;;-2.20;99.90;;;;;;5079662;28;20059;-86
2022/12/17 20:06:57;;;;;;;87.07;30.83;;;-2.20;99.90;;;;;;5112405;28;20104;-86
2022/12/17 20:09:23;;;;;;;71.40;27.88;;;-2.30;99.90;;;;;;5111145;28;20405;-86
2022/12/17 20:11:49;;;;;;;75.03;28.55;;;-2.30;99.90;;;;;;5092314;28;20259;-86
2022/12/17 20:14:17;;;;;;;77.45;28.85;;;-2.30;99.90;;;;;;5112474;28;20053;-86
2022/12/17 20:16:53;;;;;;;79.40;29.25;;;-2.30;99.90;;;;;;5109420;28;20031;-87
2022/12/17 20:19:21;;;;;;;67.05;28.50;;;-2.30;99.90;;;;;;5112231;28;20455;-86
2022/12/17 20:21:48;;;;;;;73.30;28.73;;;-2.30;99.90;;;;;;5110023;28;20105;-87
2022/12/17 20:24:14;;;;;;;78.55;29.73;;;-2.30;99.90;;;;;;5108661;27;20048;-86
2022/12/17 20:26:41;;;;;;;64.65;27.95;;;-2.30;99.90;;;;;;5107021;28;20043;-85
2022/12/17 20:29:07;;;;;;;67.85;30.65;;;-2.30;99.90;;;;;;5106033;28;20051;-85
2022/12/17 20:31:33;;;;;;;68.85;28.98;;;-2.40;99.90;;;;;;5108053;28;20135;-84
2022/12/17 20:34:00;;;;;;;68.78;28.23;;;-2.40;99.90;;;;;;5105249;28;20048;-81
2022/12/17 20:36:26;;;;;;;78.30;29.77;;;-2.40;99.90;;;;;;5108788;28;20047;-83
2022/12/17 20:38:52;;;;;;;73.07;29.75;;;-2.40;99.90;;;;;;5105796;28;20505;-82
2022/12/17 20:41:23;;;;;;;71.18;29.27;;;-2.40;99.90;;;;;;5108233;28;20058;-83
2022/12/17 20:43:49;;;;;;;79.70;32.00;;;-2.50;99.90;;;;;;5108288;28;20209;-85
2022/12/17 20:46:16;;;;;;;70.28;28.60;;;-2.40;99.90;;;;;;5105975;28;20047;-81
2022/12/17 20:48:43;;;;;;;74.70;31.38;;;-2.50;99.90;;;;;;5107848;28;20044;-80
2022/12/17 20:51:12;;;;;;;75.05;31.83;;;-2.50;99.90;;;;;;5103643;28;20063;-81
2022/12/17 20:53:38;;;;;;;70.45;30.85;;;-2.50;99.90;;;;;;5107925;28;20628;-81
2022/12/17 20:56:13;;;;;;;72.50;31.83;;;-1.20;99.90;;;;;;5104599;28;20047;-82
2022/12/17 20:58:40;;;;;;;73.57;31.60;;;-2.50;99.90;;;;;;5088590;28;20616;-81
2022/12/17 21:01:11;;;;;;;74.30;32.42;;;-2.50;99.90;;;;;;5088647;28;20051;-81
2022/12/17 21:03:37;;;;;;;78.60;32.47;;;-2.60;99.90;;;;;;5104237;28;20036;-81
2022/12/17 21:06:08;;;;;;;77.13;31.63;;;-2.50;99.90;;;;;;5106185;28;20091;-82
2022/12/17 21:08:35;;;;;;;71.25;32.35;;;-2.60;99.90;;;;;;5103015;28;20538;-83
2022/12/17 21:11:01;;;;;;;73.03;31.35;;;-2.60;99.90;;;;;;5089962;28;20071;-83
2022/12/17 21:13:30;;;;;;;87.65;36.63;;;-2.60;99.90;;;;;;5086986;28;20090;-82
2022/12/17 21:16:01;;;;;;;76.82;33.47;;;-2.60;99.90;;;;;;5105447;28;20399;-82
2022/12/17 21:18:29;;;;;;;79.38;33.15;;;-2.60;99.90;;;;;;5105507;28;20052;-82
2022/12/17 21:21:09;;;;;;;81.90;33.28;;;-2.60;99.90;;;;;;5103440;28;20055;-82
2022/12/17 21:23:37;;;;;;;75.30;33.45;;;-2.60;99.90;;;;;;5089395;28;20456;-82
2022/12/17 21:26:12;;;;;;;73.95;33.53;;;-2.50;99.90;;;;;;5103323;28;20042;-83
2022/12/17 21:28:40;;;;;;;72.97;32.60;;;-2.50;99.90;;;;;;5088444;28;20051;-83
2022/12/17 21:31:24;;;;;;;69.30;31.20;;;-2.50;99.90;;;;;;5104700;28;20043;-83
2022/12/17 21:33:50;;;;;;;;;;;-2.50;99.90;;;;;;5086756;28;20122;-82
2022/12/17 21:36:18;;;;;;;76.72;30.23;;;-1.70;99.90;;;;;;5088407;28;19920;-81
2022/12/17 21:38:44;;;;;;;76.70;32.92;;;-2.50;99.90;;;;;;5102601;28;20086;-84
2022/12/17 21:41:13;;;;;;;73.18;32.72;;;-2.50;99.90;;;;;;5107288;28;20047;-84
2022/12/17 21:43:39;;;;;;;83.28;32.10;;;-1.10;99.90;;;;;;5103696;28;20046;-83
2022/12/17 21:46:06;;;;;;;85.53;33.13;;;-2.60;99.90;;;;;;5104543;28;20059;-82
2022/12/17 21:48:34;;;;;;;72.47;32.30;;;-2.60;99.90;;;;;;5087959;28;20057;-81
2022/12/17 21:51:02;;;;;;;83.82;34.67;;;-2.60;99.90;;;;;;5102883;28;20054;-83
2022/12/17 21:53:28;;;;;;;78.38;32.70;;;-2.60;99.90;;;;;;5105524;28;20121;-82
2022/12/17 21:56:18;;;;;;;74.88;32.55;;;-2.60;99.90;;;;;;5102474;28;20039;-80
2022/12/17 21:58:45;;;;;;;79.50;33.22;;;-2.60;99.90;;;;;;5088171;28;20368;-82
2022/12/17 22:01:23;;;;;;;78.03;34.90;;;-2.60;99.90;;;;;;5104280;28;20039;-83
2022/12/17 22:03:51;;;;;;;76.82;33.13;;;-2.60;99.90;;;;;;5102855;28;20122;-82
2022/12/17 22:06:19;;;;;;;77.40;32.72;;;-2.60;99.90;;;;;;5105039;28;20564;-83
2022/12/17 22:08:46;;;;;;;81.63;32.95;;;-2.60;99.90;;;;;;5101715;28;20048;-83
2022/12/17 22:11:31;;;;;;;85.72;33.17;;;-1.30;99.90;;;;;;5105457;28;20035;-82
2022/12/17 22:14:08;;;;;;;81.32;31.83;;;-2.70;99.90;;;;;;5109854;28;20048;-82
2022/12/17 22:16:41;;;;;;;80.47;32.17;;;-2.70;99.90;;;;;;5094473;28;20051;-83
2022/12/17 22:19:09;;;;;;;92.00;33.08;;;-2.70;99.90;;;;;;5094910;28;20055;-83
2022/12/17 22:21:38;;;;;;;74.43;31.55;;;-2.30;99.90;;;;;;5109037;28;20135;-84
2022/12/17 22:24:05;;;;;;;82.15;32.28;;;-2.70;99.90;;;;;;5095858;28;20035;-82
2022/12/17 22:26:32;;;;;;;86.57;31.67;;;-2.70;99.90;;;;;;5109692;28;20517;-84
2022/12/17 22:28:59;;;;;;;80.57;31.38;;;-2.80;99.90;;;;;;5077383;28;20090;-82
2022/12/17 22:34:11;;;;;;;87.90;33.03;;;-2.80;99.90;;;;;;5109535;28;20074;-82
2022/12/17 22:36:37;;;;;;;81.15;30.58;;;-2.80;99.90;;;;;;5112048;28;20092;-84
2022/12/17 22:39:06;;;;;;;88.75;33.70;;;-2.80;99.90;;;;;;5092425;28;20071;-83
2022/12/17 22:44:16;;;;;;;93.40;32.58;;;-2.90;99.90;;;;;;5111285;28;20050;-83
2022/12/17 22:46:42;;;;;;;79.43;32.17;;;-2.90;99.90;;;;;;5092430;28;20477;-80
2022/12/17 22:49:08;;;;;;;73.40;29.30;;;-2.90;99.90;;;;;;5077966;28;20054;-83
2022/12/17 22:51:35;;;;;;;81.93;31.27;;;-2.90;99.90;;;;;;5108487;28;20483;-83
2022/12/17 22:54:02;;;;;;;75.13;31.05;;;-4.10;99.90;;;;;;5094912;28;20035;-83
2022/12/17 22:56:28;;;;;;;68.40;28.75;;;-2.90;99.90;;;;;;5110079;28;20524;-84
2022/12/17 22:58:54;;;;;;;69.30;28.40;;;-2.90;99.90;;;;;;5094008;28;20035;-83
2022/12/17 23:01:20;;;;;;;77.25;30.23;;;-2.80;99.90;;;;;;5110713;28;20043;-83
2022/12/17 23:03:45;;;;;;;79.82;29.30;;;-2.90;99.90;;;;;;5075389;28;20080;-83
2022/12/17 23:06:16;;;;;;;79.50;30.17;;;-2.90;99.90;;;;;;5111499;28;20099;-83
2022/12/17 23:08:42;;;;;;;72.05;29.90;;;-2.90;99.90;;;;;;5108580;28;20090;-82
2022/12/17 23:11:15;;;;;;;80.55;30.17;;;-2.90;99.90;;;;;;5094584;28;20119;-82
2022/12/17 23:13:41;;;;;;;52.35;22.90;;;-2.90;99.90;;;;;;5109678;28;20340;-83
2022/12/17 23:16:08;;;;;;;88.38;29.75;;;-2.90;99.90;;;;;;5110469;28;20115;-83
2022/12/17 23:18:34;;;;;;;82.43;29.77;;;-1.70;99.90;;;;;;5110272;28;20051;-83
2022/12/17 23:21:11;;;;;;;87.40;31.08;;;-3.00;99.90;;;;;;5109379;28;20059;-83
2022/12/17 23:23:38;;;;;;;79.78;31.65;;;-3.00;99.90;;;;;;5111184;28;20054;-82
2022/12/17 23:26:13;;;;;;;88.65;32.65;;;-3.00;99.90;;;;;;5087492;28;20132;-83
2022/12/17 23:28:39;;;;;;;79.65;28.90;;;-3.00;99.90;;;;;;5091390;28;20052;-83
2022/12/17 23:31:15;;;;;;;88.47;33.13;;;-3.00;99.90;;;;;;5090235;28;20452;-83
2022/12/17 23:33:41;;;;;;;81.10;31.30;;;-3.00;99.90;;;;;;5106747;28;20047;-83
2022/12/17 23:36:19;;;;;;;94.57;29.95;;;-3.00;99.90;;;;;;5090703;28;20047;-83
2022/12/17 23:38:46;;;;;;;81.70;29.92;;;-3.00;99.90;;;;;;5105304;28;20036;-83
2022/12/17 23:41:16;;;;;;;70.22;28.10;;;-3.00;99.90;;;;;;5108922;28;20111;-83
2022/12/17 23:43:41;;;;;;;68.47;26.88;;;-3.00;99.90;;;;;;5105691;28;20128;-83
2022/12/17 23:46:08;;;;;;;80.57;29.92;;;-3.00;99.90;;;;;;5108810;28;20075;-83
2022/12/17 23:48:37;;;;;;;79.97;29.00;;;-2.90;99.90;;;;;;5106797;28;20047;-83
2022/12/17 23:51:03;;;;;;;81.80;29.25;;;-2.90;99.90;;;;;;5107521;28;20046;-83
2022/12/17 23:53:30;;;;;;;79.05;27.83;;;-2.90;99.90;;;;;;5108523;28;20131;-83
2022/12/17 23:56:07;;;;;;;72.55;29.60;;;-2.90;99.90;;;;;;5105104;28;20044;-83
2022/12/17 23:58:34;;;;;;;72.10;27.38;;;-2.90;99.90;;;;;;5108652;28;20040;-82
